createdAt,value
2019-05-05T00:01:30.914Z,6.47
2019-05-05T00:04:14.910Z,6.27
2019-05-05T00:06:44.539Z,5.53
2019-05-05T00:09:14.603Z,4.90
2019-05-05T00:11:58.931Z,3.93
2019-05-05T00:14:35.153Z,6.30
2019-05-05T00:17:11.131Z,4.23
2019-05-05T00:19:39.962Z,5.57
2019-05-05T00:22:08.850Z,7.23
2019-05-05T00:24:37.662Z,4.77
2019-05-05T00:27:06.663Z,4.03
2019-05-05T00:29:35.551Z,9.43
2019-05-05T00:32:05.048Z,5.07
2019-05-05T00:34:35.023Z,5.37
2019-05-05T00:37:04.600Z,4.10
2019-05-05T00:39:34.472Z,8.60
2019-05-05T00:42:04.816Z,6.23
2019-05-05T00:44:35.230Z,5.77
2019-05-05T00:47:41.689Z,4.83
2019-05-05T00:50:14.592Z,5.23
2019-05-05T00:52:44.531Z,5.17
2019-05-05T00:55:15.174Z,5.03
2019-05-05T00:57:45.366Z,5.60
2019-05-05T01:00:27.789Z,6.47
2019-05-05T01:02:56.701Z,4.50
2019-05-05T01:05:41.634Z,4.27
2019-05-05T01:08:14.936Z,5.00
2019-05-05T01:10:44.349Z,4.73
2019-05-05T01:13:15.187Z,4.87
2019-05-05T01:15:44.879Z,4.60
2019-05-05T01:18:15.223Z,4.47
2019-05-05T01:20:44.818Z,5.73
2019-05-05T01:23:15.027Z,4.33
2019-05-05T01:25:46.123Z,4.27
2019-05-05T01:28:14.906Z,4.60
2019-05-05T01:30:45.948Z,4.93
2019-05-05T01:33:27.167Z,6.63
2019-05-05T01:35:55.968Z,5.03
2019-05-05T01:38:31.803Z,3.97
2019-05-05T01:41:14.695Z,4.90
2019-05-05T01:43:45.199Z,4.70
2019-05-05T01:46:14.428Z,5.23
2019-05-05T01:48:44.517Z,5.13
2019-05-05T01:51:14.321Z,5.47
2019-05-05T01:53:44.300Z,5.20
2019-05-05T01:56:15.251Z,5.20
2019-05-05T01:58:44.304Z,4.33
2019-05-05T02:01:15.143Z,3.33
2019-05-05T02:03:44.314Z,3.83
2019-05-05T02:06:14.225Z,4.83
2019-05-05T02:08:45.276Z,4.70
2019-05-05T02:11:15.645Z,8.60
2019-05-05T02:13:45.070Z,4.70
2019-05-05T02:16:15.051Z,4.07
2019-05-05T02:18:45.054Z,4.00
2019-05-05T02:21:14.363Z,4.00
2019-05-05T02:23:45.181Z,4.70
2019-05-05T02:26:15.273Z,4.53
2019-05-05T02:28:57.510Z,4.43
2019-05-05T02:31:48.346Z,7.53
2019-05-05T02:34:17.380Z,4.73
2019-05-05T02:36:46.350Z,6.40
2019-05-05T02:39:16.133Z,3.97
2019-05-05T02:41:45.594Z,3.73
2019-05-05T02:44:17.267Z,4.90
2019-05-05T02:47:08.747Z,4.40
2019-05-05T02:49:38.094Z,4.40
2019-05-05T02:52:07.620Z,4.67
2019-05-05T02:54:37.695Z,3.17
2019-05-05T02:57:07.568Z,3.60
2019-05-05T02:59:46.093Z,5.17
2019-05-05T03:02:26.691Z,5.40
2019-05-05T03:04:56.024Z,3.93
2019-05-05T03:07:27.488Z,5.40
2019-05-05T03:09:58.791Z,5.05
2019-05-05T03:12:30.218Z,5.53
2019-05-05T03:15:01.042Z,6.17
2019-05-05T03:17:30.004Z,6.00
2019-05-05T03:19:59.051Z,4.53
2019-05-05T03:22:28.291Z,5.13
2019-05-05T03:24:57.266Z,4.53
2019-05-05T03:27:26.641Z,4.30
2019-05-05T03:29:56.105Z,5.87
2019-05-05T03:32:25.657Z,4.67
2019-05-05T03:34:55.065Z,5.60
2019-05-05T03:37:25.051Z,4.13
2019-05-05T03:40:00.617Z,4.33
2019-05-05T03:42:35.664Z,3.77
2019-05-05T03:45:14.445Z,6.37
2019-05-05T03:47:44.060Z,4.97
2019-05-05T03:50:14.449Z,7.20
2019-05-05T03:52:43.908Z,7.80
2019-05-05T03:55:13.824Z,5.97
2019-05-05T03:57:44.538Z,7.40
2019-05-05T04:00:15.367Z,4.63
2019-05-05T04:02:53.858Z,9.30
2019-05-05T04:05:28.053Z,5.80
2019-05-05T04:07:57.108Z,6.90
2019-05-05T04:10:25.943Z,7.33
2019-05-05T04:12:56.642Z,5.00
2019-05-05T04:15:25.675Z,7.03
2019-05-05T04:18:19.548Z,6.17
2019-05-05T04:20:48.467Z,5.03
2019-05-05T04:23:17.346Z,4.70
2019-05-05T04:25:46.179Z,4.30
2019-05-05T04:28:14.999Z,6.13
2019-05-05T04:30:44.435Z,5.17
2019-05-05T04:33:14.195Z,8.23
2019-05-05T04:35:44.437Z,5.23
2019-05-05T04:38:14.043Z,6.00
2019-05-05T04:40:43.606Z,6.17
2019-05-05T04:43:14.296Z,4.57
2019-05-05T04:45:43.579Z,6.57
2019-05-05T04:48:24.063Z,5.67
2019-05-05T04:51:00.995Z,6.60
2019-05-05T04:53:35.443Z,7.87
2019-05-05T04:56:04.451Z,7.37
2019-05-05T04:58:33.644Z,6.37
2019-05-05T05:01:04.666Z,5.77
2019-05-05T05:03:39.488Z,6.93
2019-05-05T05:06:14.708Z,7.07
2019-05-05T05:08:44.382Z,7.23
2019-05-05T05:11:14.159Z,7.40
2019-05-05T05:13:44.059Z,6.97
2019-05-05T05:16:13.921Z,5.47
2019-05-05T05:18:44.639Z,8.83
2019-05-05T05:21:14.512Z,6.00
2019-05-05T05:23:44.384Z,8.07
2019-05-05T05:26:13.982Z,7.97
2019-05-05T05:28:44.810Z,12.17
2019-05-05T05:31:14.077Z,7.63
2019-05-05T05:33:43.654Z,9.10
2019-05-05T05:36:14.422Z,6.97
2019-05-05T05:38:45.123Z,10.93
2019-05-05T05:41:20.306Z,8.00
2019-05-05T05:44:05.454Z,7.87
2019-05-05T05:46:50.803Z,8.37
2019-05-05T05:49:27.655Z,7.73
2019-05-05T05:51:56.599Z,6.07
2019-05-05T05:54:25.507Z,7.27
2019-05-05T05:56:54.429Z,6.53
2019-05-05T05:59:24.704Z,5.77
2019-05-05T06:02:08.415Z,7.97
2019-05-05T06:04:24.363Z,8.30
2019-05-05T06:06:54.373Z,8.03
2019-05-05T06:09:23.760Z,7.43
2019-05-05T06:11:54.176Z,9.40
2019-05-05T06:14:24.676Z,5.80
2019-05-05T06:16:54.040Z,8.20
2019-05-05T06:19:24.625Z,6.93
2019-05-05T06:21:54.270Z,7.73
2019-05-05T06:24:24.041Z,9.00
2019-05-05T06:26:54.714Z,7.90
2019-05-05T06:29:23.960Z,7.67
2019-05-05T06:31:53.796Z,6.23
2019-05-05T06:34:24.440Z,9.90
2019-05-05T06:36:53.731Z,8.60
2019-05-05T06:39:24.151Z,5.73
2019-05-05T06:42:10.429Z,10.27
2019-05-05T06:44:46.219Z,4.87
2019-05-05T06:47:17.355Z,6.57
2019-05-05T06:49:46.260Z,8.00
2019-05-05T06:52:15.146Z,6.67
2019-05-05T06:54:43.999Z,7.73
2019-05-05T06:57:13.664Z,6.40
2019-05-05T06:59:43.922Z,4.33
2019-05-05T07:02:14.519Z,7.00
2019-05-05T07:04:44.558Z,8.97
2019-05-05T07:07:14.626Z,8.93
2019-05-05T07:09:44.388Z,8.00
2019-05-05T07:12:13.917Z,7.93
2019-05-05T07:14:44.551Z,6.53
2019-05-05T07:17:14.147Z,5.90
2019-05-05T07:19:44.949Z,5.60
2019-05-05T07:22:14.412Z,6.93
2019-05-05T07:24:44.532Z,7.13
2019-05-05T07:27:13.968Z,5.57
2019-05-05T07:29:43.720Z,6.27
2019-05-05T07:32:14.216Z,6.10
2019-05-05T07:35:05.287Z,7.73
2019-05-05T07:37:34.511Z,7.37
2019-05-05T07:40:04.197Z,5.97
2019-05-05T07:42:33.607Z,6.77
2019-05-05T07:45:05.398Z,7.07
2019-05-05T07:47:34.245Z,6.93
2019-05-05T07:50:04.153Z,4.80
2019-05-05T07:52:34.365Z,4.80
2019-05-05T07:55:03.730Z,5.30
2019-05-05T07:57:34.149Z,5.03
2019-05-05T08:00:05.452Z,6.53
2019-05-05T08:02:34.225Z,5.20
2019-05-05T08:05:04.627Z,3.47
2019-05-05T08:07:34.122Z,7.17
2019-05-05T08:10:04.537Z,7.27
2019-05-05T08:12:34.208Z,9.73
2019-05-05T08:15:04.326Z,7.00
2019-05-05T08:17:51.188Z,5.77
2019-05-05T08:20:26.775Z,6.70
2019-05-05T08:22:55.605Z,4.27
2019-05-05T08:25:40.450Z,6.20
2019-05-05T08:28:31.368Z,6.17
2019-05-05T08:31:05.396Z,4.63
2019-05-05T08:33:34.375Z,4.47
2019-05-05T08:36:04.579Z,5.33
2019-05-05T08:38:34.789Z,6.67
2019-05-05T08:41:04.553Z,7.40
2019-05-05T08:43:34.790Z,5.23
2019-05-05T08:46:04.881Z,5.97
2019-05-05T08:48:36.255Z,5.37
2019-05-05T08:51:05.225Z,6.60
2019-05-05T08:53:44.064Z,5.87
2019-05-05T08:56:05.016Z,5.53
2019-05-05T08:58:34.487Z,7.03
2019-05-05T09:01:04.354Z,5.03
2019-05-05T09:03:33.723Z,9.20
2019-05-05T09:06:04.722Z,6.07
2019-05-05T09:08:34.727Z,11.80
2019-05-05T09:11:04.802Z,7.87
2019-05-05T09:13:34.147Z,9.17
2019-05-05T09:16:03.792Z,8.43
2019-05-05T09:18:33.920Z,9.77
2019-05-05T09:21:04.339Z,8.40
2019-05-05T09:23:35.103Z,11.63
2019-05-05T09:26:19.924Z,9.73
2019-05-05T09:28:55.158Z,8.00
2019-05-05T09:31:24.069Z,11.67
2019-05-05T09:33:53.658Z,11.00
2019-05-05T09:36:24.314Z,8.53
2019-05-05T09:38:54.069Z,8.57
2019-05-05T09:41:23.596Z,11.30
2019-05-05T09:43:53.925Z,12.63
2019-05-05T09:46:23.520Z,11.53
2019-05-05T09:48:54.160Z,9.83
2019-05-05T09:51:24.195Z,10.30
2019-05-05T09:53:54.152Z,10.20
2019-05-05T09:56:23.689Z,11.37
2019-05-05T09:58:54.465Z,8.73
2019-05-05T10:01:24.581Z,9.93
2019-05-05T10:03:56.531Z,9.10
2019-05-05T10:06:25.367Z,9.80
2019-05-05T10:08:54.291Z,8.03
2019-05-05T10:11:23.873Z,10.00
2019-05-05T10:13:54.615Z,12.13
2019-05-05T10:16:23.693Z,9.47
2019-05-05T10:18:54.176Z,8.13
2019-05-05T10:21:24.645Z,8.30
2019-05-05T10:23:55.322Z,12.57
2019-05-05T10:26:24.383Z,9.50
2019-05-05T10:28:53.762Z,12.00
2019-05-05T10:31:24.118Z,10.57
2019-05-05T10:33:57.504Z,10.60
2019-05-05T10:36:26.335Z,7.73
2019-05-05T10:38:59.902Z,13.60
2019-05-05T10:41:28.902Z,10.67
2019-05-05T10:43:57.797Z,9.17
2019-05-05T10:46:26.630Z,8.07
2019-05-05T10:48:55.443Z,8.07
2019-05-05T10:51:24.276Z,9.90
2019-05-05T10:53:54.478Z,8.37
2019-05-05T10:56:24.193Z,10.00
2019-05-05T10:58:54.574Z,7.50
2019-05-05T11:01:23.650Z,10.97
2019-05-05T11:03:52.631Z,7.90
2019-05-05T11:06:21.803Z,11.27
2019-05-05T11:08:50.695Z,9.47
2019-05-05T11:11:19.547Z,10.83
2019-05-05T11:13:48.591Z,6.80
2019-05-05T11:16:17.442Z,9.33
2019-05-05T11:18:46.504Z,12.13
2019-05-05T11:21:15.406Z,7.70
2019-05-05T11:23:44.812Z,11.67
2019-05-05T11:26:14.425Z,9.60
2019-05-05T11:28:44.492Z,10.80
2019-05-05T11:31:13.839Z,12.33
2019-05-05T11:34:01.698Z,11.33
2019-05-05T11:36:49.615Z,9.90
2019-05-05T11:39:18.433Z,11.53
2019-05-05T11:41:47.267Z,11.30
2019-05-05T11:44:16.097Z,8.67
2019-05-05T11:46:44.958Z,7.07
2019-05-05T11:49:14.080Z,7.07
2019-05-05T11:51:43.699Z,5.63
2019-05-05T11:54:14.049Z,3.93
2019-05-05T11:56:44.682Z,5.43
2019-05-05T11:59:14.458Z,5.63
2019-05-05T12:01:44.087Z,4.70
2019-05-05T12:04:14.752Z,5.37
2019-05-05T12:06:44.394Z,5.70
2019-05-05T12:09:20.931Z,5.93
2019-05-05T12:11:49.843Z,7.53
2019-05-05T12:14:20.635Z,6.70
2019-05-05T12:16:49.451Z,6.33
2019-05-05T12:19:18.283Z,6.67
2019-05-05T12:21:47.110Z,7.03
2019-05-05T12:24:21.420Z,7.33
2019-05-05T12:27:15.419Z,6.47
2019-05-05T12:29:49.103Z,8.93
2019-05-05T12:32:18.025Z,6.13
2019-05-05T12:34:46.904Z,9.47
2019-05-05T12:37:15.811Z,11.27
2019-05-05T12:39:44.643Z,11.37
2019-05-05T12:42:14.082Z,9.00
2019-05-05T12:44:48.768Z,10.17
2019-05-05T12:47:34.391Z,10.83
2019-05-05T12:50:03.436Z,9.47
2019-05-05T12:52:33.587Z,10.13
2019-05-05T12:55:04.948Z,9.87
2019-05-05T12:57:34.334Z,9.27
2019-05-05T13:00:04.763Z,7.73
2019-05-05T13:02:33.736Z,12.03
2019-05-05T13:05:04.263Z,11.30
2019-05-05T13:07:36.296Z,11.53
2019-05-05T13:10:24.489Z,9.67
2019-05-05T13:13:03.829Z,8.38
2019-05-05T13:15:34.039Z,9.40
2019-05-05T13:18:03.625Z,9.53
2019-05-05T13:20:49.478Z,11.93
2019-05-05T13:23:25.715Z,9.70
2019-05-05T13:26:05.484Z,9.40
2019-05-05T13:28:34.532Z,5.93
2019-05-05T13:31:04.674Z,6.47
2019-05-05T13:33:36.941Z,9.50
2019-05-05T13:36:04.493Z,9.67
2019-05-05T13:38:34.329Z,8.33
2019-05-05T13:41:03.791Z,5.40
2019-05-05T13:43:34.217Z,9.93
2019-05-05T13:46:11.523Z,9.20
2019-05-05T13:48:40.415Z,6.33
2019-05-05T13:51:09.379Z,7.57
2019-05-05T13:53:38.217Z,7.97
2019-05-05T13:56:11.735Z,10.20
2019-05-05T13:58:37.767Z,7.00
2019-05-05T14:01:09.599Z,7.83
2019-05-05T14:03:37.260Z,8.07
2019-05-05T14:06:06.242Z,9.10
2019-05-05T14:08:36.434Z,6.87
2019-05-05T14:11:05.659Z,7.73
2019-05-05T14:13:34.689Z,9.17
2019-05-05T14:16:03.966Z,11.00
2019-05-05T14:18:33.175Z,7.87
2019-05-05T14:21:02.066Z,8.73
2019-05-05T14:23:34.393Z,13.47
2019-05-05T14:26:03.842Z,11.67
2019-05-05T14:28:34.013Z,9.33
2019-05-05T14:31:11.406Z,8.70
2019-05-05T14:33:54.193Z,10.40
2019-05-05T14:36:44.492Z,12.03
2019-05-05T14:39:14.763Z,7.97
2019-05-05T14:41:44.584Z,8.60
2019-05-05T14:44:13.565Z,9.03
2019-05-05T14:46:44.439Z,10.63
2019-05-05T14:49:14.069Z,9.53
2019-05-05T14:51:44.711Z,7.23
2019-05-05T14:54:14.784Z,8.50
2019-05-05T14:56:44.179Z,10.17
2019-05-05T14:59:14.191Z,8.70
2019-05-05T15:01:44.749Z,9.20
2019-05-05T15:04:15.576Z,8.67
2019-05-05T15:06:56.360Z,8.90
2019-05-05T15:09:44.381Z,7.20
2019-05-05T15:12:34.071Z,8.37
2019-05-05T15:15:03.975Z,11.97
2019-05-05T15:17:33.803Z,10.03
2019-05-05T15:20:02.834Z,10.00
2019-05-05T15:22:31.646Z,9.53
2019-05-05T15:25:00.482Z,10.63
2019-05-05T15:27:29.299Z,9.20
2019-05-05T15:29:58.149Z,11.40
2019-05-05T15:32:26.956Z,7.07
2019-05-05T15:34:55.782Z,7.87
2019-05-05T15:37:24.688Z,10.43
2019-05-05T15:39:53.737Z,11.23
2019-05-05T15:42:22.879Z,10.37
2019-05-05T15:44:51.694Z,7.07
2019-05-05T15:47:20.628Z,11.03
2019-05-05T15:49:49.502Z,13.33
2019-05-05T15:52:20.220Z,10.60
2019-05-05T15:54:49.112Z,9.00
2019-05-05T15:57:18.241Z,13.00
2019-05-05T15:59:47.318Z,10.47
2019-05-05T16:02:16.166Z,10.13
2019-05-05T16:04:44.974Z,10.33
2019-05-05T16:07:13.960Z,11.00
2019-05-05T16:09:44.370Z,10.13
2019-05-05T16:12:14.328Z,13.20
2019-05-05T16:14:51.499Z,9.33
2019-05-05T16:17:36.344Z,11.43
2019-05-05T16:20:14.269Z,10.43
2019-05-05T16:23:01.179Z,9.13
2019-05-05T16:25:30.190Z,10.27
2019-05-05T16:27:59.283Z,9.67
2019-05-05T16:30:28.350Z,10.93
2019-05-05T16:32:58.287Z,8.20
2019-05-05T16:35:28.358Z,9.57
2019-05-05T16:37:57.322Z,13.00
2019-05-05T16:40:26.303Z,11.17
2019-05-05T16:42:56.419Z,9.37
2019-05-05T16:45:25.464Z,9.17
2019-05-05T16:47:54.619Z,8.60
2019-05-05T16:50:25.072Z,8.00
2019-05-05T16:53:04.740Z,10.83
2019-05-05T16:55:38.473Z,8.20
2019-05-05T16:58:07.531Z,9.37
2019-05-05T17:00:37.923Z,9.07
2019-05-05T17:03:07.388Z,9.30
2019-05-05T17:05:36.480Z,12.40
2019-05-05T17:08:05.475Z,6.03
2019-05-05T17:10:34.409Z,8.77
2019-05-05T17:13:13.643Z,10.53
2019-05-05T17:16:04.125Z,9.57
2019-05-05T17:18:58.101Z,9.43
2019-05-05T17:21:37.028Z,9.33
2019-05-05T17:24:06.078Z,7.70
2019-05-05T17:26:35.516Z,9.47
2019-05-05T17:29:04.770Z,9.47
2019-05-05T17:31:34.033Z,8.67
2019-05-05T17:34:04.258Z,11.87
2019-05-05T17:36:33.208Z,8.03
2019-05-05T17:39:02.281Z,9.13
2019-05-05T17:41:49.095Z,8.23
2019-05-05T17:44:25.030Z,9.00
2019-05-05T17:47:04.339Z,9.30
2019-05-05T17:49:55.242Z,6.87
2019-05-05T17:52:53.760Z,9.07
2019-05-05T17:55:34.189Z,7.60
2019-05-05T17:58:05.244Z,9.73
2019-05-05T18:00:38.016Z,6.63
2019-05-05T18:03:06.868Z,4.70
2019-05-05T18:05:54.495Z,8.93
2019-05-05T18:08:44.326Z,5.00
2019-05-05T18:11:18.169Z,7.20
2019-05-05T18:13:50.840Z,6.67
2019-05-05T18:16:20.718Z,7.63
2019-05-05T18:18:49.663Z,8.93
2019-05-05T18:21:18.551Z,9.03
2019-05-05T18:23:48.648Z,6.13
2019-05-05T18:26:17.744Z,10.07
2019-05-05T18:28:48.212Z,7.57
2019-05-05T18:31:17.489Z,6.70
2019-05-05T18:33:46.554Z,6.70
2019-05-05T18:36:15.574Z,8.97
2019-05-05T18:38:44.666Z,9.07
2019-05-05T18:41:20.678Z,6.67
2019-05-05T18:43:55.392Z,7.07
2019-05-05T18:46:24.531Z,9.20
2019-05-05T18:48:54.621Z,7.43
2019-05-05T18:51:24.111Z,6.83
2019-05-05T18:53:55.014Z,13.60
2019-05-05T18:56:25.150Z,7.93
2019-05-05T18:58:55.095Z,6.60
2019-05-05T19:01:35.247Z,9.87
2019-05-05T19:04:35.684Z,8.73
2019-05-05T19:07:09.718Z,11.17
2019-05-05T19:09:50.987Z,9.17
2019-05-05T19:12:10.326Z,9.57
2019-05-05T19:14:40.252Z,10.37
2019-05-05T19:17:09.314Z,7.83
2019-05-05T19:19:40.183Z,7.77
2019-05-05T19:22:11.247Z,9.63
2019-05-05T19:24:40.383Z,10.37
2019-05-05T19:27:09.314Z,12.43
2019-05-05T19:29:39.371Z,6.07
2019-05-05T19:32:08.404Z,7.07
2019-05-05T19:34:37.396Z,6.60
2019-05-05T19:37:06.358Z,7.57
2019-05-05T19:39:35.371Z,5.53
2019-05-05T19:42:04.935Z,9.47
2019-05-05T19:44:34.011Z,9.07
2019-05-05T19:47:24.164Z,7.00
2019-05-05T19:50:08.826Z,7.23
2019-05-05T19:52:38.841Z,10.37
2019-05-05T19:55:07.998Z,13.47
2019-05-05T19:57:37.679Z,8.87
2019-05-05T20:00:08.889Z,9.50
2019-05-05T20:02:37.895Z,10.17
2019-05-05T20:05:07.074Z,9.03
2019-05-05T20:07:36.272Z,8.30
2019-05-05T20:10:07.227Z,8.47
2019-05-05T20:12:36.221Z,8.57
2019-05-05T20:15:07.334Z,7.93
2019-05-05T20:17:37.296Z,10.87
2019-05-05T20:20:07.539Z,9.97
2019-05-05T20:22:36.456Z,11.20
2019-05-05T20:25:05.983Z,9.53
2019-05-05T20:27:34.850Z,7.30
2019-05-05T20:30:06.660Z,7.13
2019-05-05T20:32:44.710Z,10.57
2019-05-05T20:35:28.171Z,9.03
2019-05-05T20:38:02.024Z,7.63
2019-05-05T20:40:34.979Z,6.13
2019-05-05T20:43:04.077Z,5.37
2019-05-05T20:45:34.776Z,7.80
2019-05-05T20:48:04.506Z,6.27
2019-05-05T20:50:34.326Z,9.40
2019-05-05T20:53:04.911Z,5.63
2019-05-05T20:55:34.069Z,6.20
2019-05-05T20:58:04.686Z,7.03
2019-05-05T21:00:34.710Z,6.03
2019-05-05T21:03:23.692Z,5.10
2019-05-05T21:05:53.828Z,8.50
2019-05-05T21:08:23.556Z,6.77
2019-05-05T21:10:53.693Z,5.50
2019-05-05T21:13:22.704Z,7.87
2019-05-05T21:15:53.766Z,7.00
2019-05-05T21:18:23.929Z,8.60
2019-05-05T21:20:54.284Z,8.43
2019-05-05T21:23:47.131Z,7.53
2019-05-05T21:26:34.299Z,10.30
2019-05-05T21:29:04.543Z,7.07
2019-05-05T21:31:34.619Z,8.37
2019-05-05T21:34:03.527Z,6.10
2019-05-05T21:36:33.644Z,7.80
2019-05-05T21:39:04.016Z,13.27
2019-05-05T21:41:33.952Z,8.23
2019-05-05T21:44:03.801Z,8.53
2019-05-05T21:46:34.690Z,6.87
2019-05-05T21:49:03.969Z,7.73
2019-05-05T21:51:58.156Z,11.63
2019-05-05T21:54:39.108Z,6.93
2019-05-05T21:57:29.619Z,8.23
2019-05-05T21:59:59.009Z,7.13
2019-05-05T22:02:28.210Z,9.93
2019-05-05T22:04:57.132Z,7.23
2019-05-05T22:07:25.957Z,8.90
2019-05-05T22:09:54.774Z,10.27
2019-05-05T22:12:24.280Z,8.47
2019-05-05T22:15:13.767Z,11.40
2019-05-05T22:17:44.764Z,9.83
2019-05-05T22:20:20.284Z,7.80
2019-05-05T22:22:49.794Z,11.47
2019-05-05T22:25:18.666Z,11.47
2019-05-05T22:27:47.504Z,9.63
2019-05-05T22:30:16.751Z,11.47
2019-05-05T22:32:45.677Z,8.53
2019-05-05T22:35:16.318Z,8.37
2019-05-05T22:37:45.341Z,13.00
2019-05-05T22:40:24.146Z,9.53
2019-05-05T22:42:51.976Z,13.47
2019-05-05T22:45:20.806Z,11.30
2019-05-05T22:47:49.627Z,14.30
2019-05-05T22:50:18.584Z,15.23
2019-05-05T22:52:47.420Z,13.30
2019-05-05T22:55:16.330Z,11.03
2019-05-05T22:57:45.275Z,12.57
2019-05-05T23:00:26.085Z,13.30
2019-05-05T23:02:50.838Z,7.53
2019-05-05T23:05:29.275Z,12.90
2019-05-05T23:07:58.251Z,10.00
2019-05-05T23:10:27.046Z,10.40
2019-05-05T23:12:56.182Z,13.30
2019-05-05T23:15:25.542Z,8.90
2019-05-05T23:18:00.581Z,13.63
2019-05-05T23:21:18.935Z,12.20
2019-05-05T23:24:14.328Z,12.10
2019-05-05T23:26:43.913Z,10.83
2019-05-05T23:29:13.077Z,11.13
2019-05-05T23:31:44.054Z,11.97
2019-05-05T23:34:14.562Z,9.63
2019-05-05T23:36:44.317Z,9.47
2019-05-05T23:39:13.626Z,8.67
2019-05-05T23:41:42.671Z,10.47
2019-05-05T23:44:11.511Z,10.73
2019-05-05T23:46:40.380Z,12.47
2019-05-05T23:49:09.351Z,12.53
2019-05-05T23:51:38.235Z,7.57
2019-05-05T23:54:07.498Z,11.47
2019-05-05T23:56:36.345Z,10.93
2019-05-05T23:59:05.340Z,11.50
